sensor_id;sensor_type;location;lat;lon;timestamp;pressure;altitude;pressure_sealevel;temperature;humidity
40502;BME280;29631;49.168;9.848;2022-11-15T00:00:53;96442.25;;;16.19;80.96
40502;BME280;29631;49.168;9.848;2022-11-15T00:03:23;96424.16;;;16.16;81.51
40502;BME280;29631;49.168;9.848;2022-11-15T00:05:49;96397.19;;;15.92;81.23
40502;BME280;29631;49.168;9.848;2022-11-15T00:08:15;96428.53;;;16.27;81.37
40502;BME280;29631;49.168;9.848;2022-11-15T00:10:41;96416.78;;;16.23;80.75
40502;BME280;29631;49.168;9.848;2022-11-15T00:13:13;96410.28;;;16.14;81.51
40502;BME280;29631;49.168;9.848;2022-11-15T00:15:40;96436.78;;;16.42;81.41
40502;BME280;29631;49.168;9.848;2022-11-15T00:18:13;96438.81;;;16.35;81.23
40502;BME280;29631;49.168;9.848;2022-11-15T00:20:39;96437.81;;;16.41;81.43
40502;BME280;29631;49.168;9.848;2022-11-15T00:23:06;96431.38;;;16.37;81.08
40502;BME280;29631;49.168;9.848;2022-11-15T00:25:32;96450.72;;;16.49;81.05
40502;BME280;29631;49.168;9.848;2022-11-15T00:27:59;96447.00;;;16.50;80.92
40502;BME280;29631;49.168;9.848;2022-11-15T00:30:25;96435.22;;;16.46;81.56
40502;BME280;29631;49.168;9.848;2022-11-15T00:32:52;96432.75;;;16.40;80.87
40502;BME280;29631;49.168;9.848;2022-11-15T00:35:19;96417.53;;;16.35;81.11
40502;BME280;29631;49.168;9.848;2022-11-15T00:37:44;96420.91;;;16.31;81.05
40502;BME280;29631;49.168;9.848;2022-11-15T00:40:11;96414.13;;;16.23;81.23
40502;BME280;29631;49.168;9.848;2022-11-15T00:42:38;96433.75;;;16.34;81.19
40502;BME280;29631;49.168;9.848;2022-11-15T00:45:04;96420.13;;;16.30;81.87
40502;BME280;29631;49.168;9.848;2022-11-15T00:47:30;96406.41;;;16.22;81.66
40502;BME280;29631;49.168;9.848;2022-11-15T00:49:56;96394.31;;;16.14;81.46
40502;BME280;29631;49.168;9.848;2022-11-15T00:52:21;96400.25;;;16.21;81.50
40502;BME280;29631;49.168;9.848;2022-11-15T00:54:47;96413.50;;;16.33;81.30
40502;BME280;29631;49.168;9.848;2022-11-15T00:57:13;96397.53;;;16.33;81.11
40502;BME280;29631;49.168;9.848;2022-11-15T00:59:39;96367.25;;;16.17;80.90
40502;BME280;29631;49.168;9.848;2022-11-15T01:02:04;96380.53;;;16.34;81.52
40502;BME280;29631;49.168;9.848;2022-11-15T01:04:30;96396.19;;;16.52;81.77
40502;BME280;29631;49.168;9.848;2022-11-15T01:06:56;96368.00;;;16.34;81.03
40502;BME280;29631;49.168;9.848;2022-11-15T01:09:22;96399.81;;;16.67;81.07
40502;BME280;29631;49.168;9.848;2022-11-15T01:11:47;96395.81;;;16.65;81.82
40502;BME280;29631;49.168;9.848;2022-11-15T01:14:13;96397.22;;;16.72;81.34
40502;BME280;29631;49.168;9.848;2022-11-15T01:16:39;96399.44;;;16.80;81.18
40502;BME280;29631;49.168;9.848;2022-11-15T01:19:05;96375.97;;;16.56;81.95
40502;BME280;29631;49.168;9.848;2022-11-15T01:21:31;96376.16;;;16.71;81.82
40502;BME280;29631;49.168;9.848;2022-11-15T01:23:57;96385.56;;;16.78;81.97
40502;BME280;29631;49.168;9.848;2022-11-15T01:26:24;96400.53;;;16.84;81.64
40502;BME280;29631;49.168;9.848;2022-11-15T01:28:50;96384.88;;;16.87;82.01
40502;BME280;29631;49.168;9.848;2022-11-15T01:31:19;96361.38;;;16.79;81.96
40502;BME280;29631;49.168;9.848;2022-11-15T01:33:46;96379.84;;;16.91;81.41
40502;BME280;29631;49.168;9.848;2022-11-15T01:36:17;96374.47;;;16.86;81.69
40502;BME280;29631;49.168;9.848;2022-11-15T01:38:43;96386.00;;;16.91;81.50
40502;BME280;29631;49.168;9.848;2022-11-15T01:41:18;96379.44;;;16.77;81.26
40502;BME280;29631;49.168;9.848;2022-11-15T01:43:46;96342.25;;;16.61;81.42
40502;BME280;29631;49.168;9.848;2022-11-15T01:48:48;96380.41;;;16.93;81.13
40502;BME280;29631;49.168;9.848;2022-11-15T01:51:18;96375.56;;;16.90;80.88
40502;BME280;29631;49.168;9.848;2022-11-15T01:53:48;96357.69;;;16.85;81.19
40502;BME280;29631;49.168;9.848;2022-11-15T01:56:20;96381.97;;;16.89;81.55
40502;BME280;29631;49.168;9.848;2022-11-15T01:58:47;96369.75;;;16.93;81.68
40502;BME280;29631;49.168;9.848;2022-11-15T02:01:13;96353.72;;;16.88;81.03
40502;BME280;29631;49.168;9.848;2022-11-15T02:04:08;96353.13;;;16.81;81.48
40502;BME280;29631;49.168;9.848;2022-11-15T02:06:36;96339.75;;;16.76;81.40
40502;BME280;29631;49.168;9.848;2022-11-15T02:09:02;96364.88;;;16.85;81.28
40502;BME280;29631;49.168;9.848;2022-11-15T02:11:28;96326.34;;;16.66;80.83
40502;BME280;29631;49.168;9.848;2022-11-15T02:13:55;96291.09;;;16.33;80.67
40502;BME280;29631;49.168;9.848;2022-11-15T02:30:45;96341.16;;;16.57;80.30
40502;BME280;29631;49.168;9.848;2022-11-15T02:38:59;96332.59;;;16.55;79.96
40502;BME280;29631;49.168;9.848;2022-11-15T02:42:00;96320.25;;;16.44;80.04
40502;BME280;29631;49.168;9.848;2022-11-15T02:44:36;96331.75;;;16.50;80.24
40502;BME280;29631;49.168;9.848;2022-11-15T02:47:11;96341.66;;;16.54;80.52
40502;BME280;29631;49.168;9.848;2022-11-15T02:49:56;96323.75;;;16.50;80.06
40502;BME280;29631;49.168;9.848;2022-11-15T02:52:24;96326.97;;;16.52;79.76
40502;BME280;29631;49.168;9.848;2022-11-15T02:54:56;96317.59;;;16.44;80.07
40502;BME280;29631;49.168;9.848;2022-11-15T02:57:52;96294.34;;;16.35;80.28
40502;BME280;29631;49.168;9.848;2022-11-15T03:00:21;96289.19;;;16.28;79.78
40502;BME280;29631;49.168;9.848;2022-11-15T03:03:13;96312.00;;;16.46;79.63
40502;BME280;29631;49.168;9.848;2022-11-15T03:06:15;96283.78;;;16.23;79.54
40502;BME280;29631;49.168;9.848;2022-11-15T03:09:12;96290.47;;;16.26;79.83
40502;BME280;29631;49.168;9.848;2022-11-15T03:11:48;96307.38;;;16.36;79.83
40502;BME280;29631;49.168;9.848;2022-11-15T03:14:34;96308.47;;;16.40;80.58
40502;BME280;29631;49.168;9.848;2022-11-15T03:17:24;96311.69;;;16.42;80.27
40502;BME280;29631;49.168;9.848;2022-11-15T03:19:54;96245.75;;;16.01;79.40
40502;BME280;29631;49.168;9.848;2022-11-15T03:22:24;96311.56;;;16.32;79.24
40502;BME280;29631;49.168;9.848;2022-11-15T03:24:55;96296.13;;;16.29;79.69
40502;BME280;29631;49.168;9.848;2022-11-15T03:27:27;96235.44;;;15.84;79.47
40502;BME280;29631;49.168;9.848;2022-11-15T03:30:02;96311.81;;;16.31;79.39
40502;BME280;29631;49.168;9.848;2022-11-15T03:32:32;96299.44;;;16.20;79.42
40502;BME280;29631;49.168;9.848;2022-11-15T03:35:06;96295.66;;;16.16;79.53
40502;BME280;29631;49.168;9.848;2022-11-15T03:40:45;96299.28;;;16.10;80.02
40502;BME280;29631;49.168;9.848;2022-11-15T03:44:14;96299.75;;;16.02;79.30
40502;BME280;29631;49.168;9.848;2022-11-15T03:47:01;96300.50;;;15.98;79.42
40502;BME280;29631;49.168;9.848;2022-11-15T03:49:33;96286.41;;;15.81;79.53
40502;BME280;29631;49.168;9.848;2022-11-15T03:52:01;96274.06;;;15.70;79.60
40502;BME280;29631;49.168;9.848;2022-11-15T03:54:28;96282.84;;;15.70;80.03
40502;BME280;29631;49.168;9.848;2022-11-15T03:56:53;96268.03;;;15.58;80.25
40502;BME280;29631;49.168;9.848;2022-11-15T03:59:19;96278.91;;;15.73;80.10
40502;BME280;29631;49.168;9.848;2022-11-15T04:01:45;96263.94;;;15.67;79.92
40502;BME280;29631;49.168;9.848;2022-11-15T04:04:11;96274.06;;;15.70;79.88
40502;BME280;29631;49.168;9.848;2022-11-15T04:06:37;96270.50;;;15.64;79.60
40502;BME280;29631;49.168;9.848;2022-11-15T04:09:03;96269.72;;;15.64;80.24
40502;BME280;29631;49.168;9.848;2022-11-15T04:11:29;96263.31;;;15.60;80.05
40502;BME280;29631;49.168;9.848;2022-11-15T04:13:55;96196.53;;;15.19;79.94
40502;BME280;29631;49.168;9.848;2022-11-15T04:16:20;96245.47;;;15.39;80.56
40502;BME280;29631;49.168;9.848;2022-11-15T04:18:46;96240.22;;;15.44;80.27
40502;BME280;29631;49.168;9.848;2022-11-15T04:21:32;96207.97;;;15.19;79.84
40502;BME280;29631;49.168;9.848;2022-11-15T04:24:16;96253.41;;;15.55;80.00
40502;BME280;29631;49.168;9.848;2022-11-15T04:26:42;96271.34;;;15.65;79.89
40502;BME280;29631;49.168;9.848;2022-11-15T04:29:08;96263.84;;;15.62;80.17
40502;BME280;29631;49.168;9.848;2022-11-15T04:31:52;96272.94;;;15.66;80.10
40502;BME280;29631;49.168;9.848;2022-11-15T04:34:17;96263.31;;;15.60;79.64
40502;BME280;29631;49.168;9.848;2022-11-15T04:36:43;96272.63;;;15.62;80.43
40502;BME280;29631;49.168;9.848;2022-11-15T04:39:27;96256.31;;;15.54;79.85
40502;BME280;29631;49.168;9.848;2022-11-15T04:41:53;96253.66;;;15.54;80.26
40502;BME280;29631;49.168;9.848;2022-11-15T04:44:19;96259.28;;;15.57;79.92
40502;BME280;29631;49.168;9.848;2022-11-15T04:46:44;96252.84;;;15.53;80.16
40502;BME280;29631;49.168;9.848;2022-11-15T04:49:10;96255.22;;;15.55;80.04
40502;BME280;29631;49.168;9.848;2022-11-15T04:51:36;96250.91;;;15.49;80.59
40502;BME280;29631;49.168;9.848;2022-11-15T04:54:02;96252.03;;;15.53;80.32
40502;BME280;29631;49.168;9.848;2022-11-15T04:56:27;96182.31;;;15.08;80.05
40502;BME280;29631;49.168;9.848;2022-11-15T04:58:53;96261.06;;;15.52;80.12
40502;BME280;29631;49.168;9.848;2022-11-15T05:01:19;96268.28;;;15.56;80.20
40502;BME280;29631;49.168;9.848;2022-11-15T05:03:45;96251.78;;;15.54;80.58
40502;BME280;29631;49.168;9.848;2022-11-15T05:06:30;96247.25;;;15.55;80.33
40502;BME280;29631;49.168;9.848;2022-11-15T05:08:56;96246.53;;;15.59;80.47
40502;BME280;29631;49.168;9.848;2022-11-15T05:11:22;96239.28;;;15.55;80.54
40502;BME280;29631;49.168;9.848;2022-11-15T05:13:48;96212.91;;;15.48;80.30
40502;BME280;29631;49.168;9.848;2022-11-15T05:16:14;96257.66;;;15.56;80.58
40502;BME280;29631;49.168;9.848;2022-11-15T05:18:40;96259.28;;;15.57;80.17
40502;BME280;29631;49.168;9.848;2022-11-15T05:21:09;96254.75;;;15.58;80.14
40502;BME280;29631;49.168;9.848;2022-11-15T05:23:36;96252.50;;;15.50;80.23
40502;BME280;29631;49.168;9.848;2022-11-15T05:26:04;96237.63;;;15.49;80.28
40502;BME280;29631;49.168;9.848;2022-11-15T05:28:32;96233.38;;;15.48;80.68
40502;BME280;29631;49.168;9.848;2022-11-15T05:31:06;96226.88;;;15.39;80.71
40502;BME280;29631;49.168;9.848;2022-11-15T05:33:35;96234.09;;;15.43;80.70
40502;BME280;29631;49.168;9.848;2022-11-15T05:36:12;96213.44;;;15.29;80.35
40502;BME280;29631;49.168;9.848;2022-11-15T05:38:39;96225.19;;;15.33;80.55
40502;BME280;29631;49.168;9.848;2022-11-15T05:41:06;96222.47;;;15.28;80.56
40502;BME280;29631;49.168;9.848;2022-11-15T05:43:34;96215.53;;;15.27;80.63
40502;BME280;29631;49.168;9.848;2022-11-15T05:46:02;96208.22;;;15.18;80.28
40502;BME280;29631;49.168;9.848;2022-11-15T05:48:30;96181.75;;;14.90;80.05
40502;BME280;29631;49.168;9.848;2022-11-15T05:50:56;96215.03;;;15.14;80.76
40502;BME280;29631;49.168;9.848;2022-11-15T05:53:23;96132.78;;;14.64;80.15
40502;BME280;29631;49.168;9.848;2022-11-15T05:55:51;96209.09;;;15.07;80.42
40502;BME280;29631;49.168;9.848;2022-11-15T05:58:17;96164.50;;;14.71;80.87
40502;BME280;29631;49.168;9.848;2022-11-15T06:00:44;96149.16;;;14.56;80.75
40502;BME280;29631;49.168;9.848;2022-11-15T06:03:10;96148.50;;;14.50;80.65
40502;BME280;29631;49.168;9.848;2022-11-15T06:05:36;96238.94;;;14.97;80.59
40502;BME280;29631;49.168;9.848;2022-11-15T06:08:02;96208.97;;;14.80;81.73
40502;BME280;29631;49.168;9.848;2022-11-15T06:10:27;96232.44;;;14.88;80.98
40502;BME280;29631;49.168;9.848;2022-11-15T06:13:00;96237.44;;;14.85;81.46
40502;BME280;29631;49.168;9.848;2022-11-15T06:15:26;96231.81;;;14.81;81.21
40502;BME280;29631;49.168;9.848;2022-11-15T06:17:52;96231.28;;;14.68;80.94
40502;BME280;29631;49.168;9.848;2022-11-15T06:20:26;96237.03;;;14.76;81.48
40502;BME280;29631;49.168;9.848;2022-11-15T06:23:03;96223.75;;;14.76;81.69
40502;BME280;29631;49.168;9.848;2022-11-15T06:25:30;96208.16;;;14.63;81.24
40502;BME280;29631;49.168;9.848;2022-11-15T06:27:58;96221.66;;;14.78;80.84
40502;BME280;29631;49.168;9.848;2022-11-15T06:30:25;96223.75;;;14.76;81.26
40502;BME280;29631;49.168;9.848;2022-11-15T06:32:51;96218.91;;;14.73;81.22
40502;BME280;29631;49.168;9.848;2022-11-15T06:35:23;96162.97;;;14.26;81.02
40502;BME280;29631;49.168;9.848;2022-11-15T06:37:49;96216.00;;;14.58;80.86
40502;BME280;29631;49.168;9.848;2022-11-15T06:40:15;96216.34;;;14.62;80.99
40502;BME280;29631;49.168;9.848;2022-11-15T06:42:41;96234.38;;;14.60;81.14
40502;BME280;29631;49.168;9.848;2022-11-15T06:45:07;96183.91;;;14.11;81.67
40502;BME280;29631;49.168;9.848;2022-11-15T06:47:33;96204.84;;;14.40;81.46
40502;BME280;29631;49.168;9.848;2022-11-15T06:49:58;96197.50;;;14.31;81.65
40502;BME280;29631;49.168;9.848;2022-11-15T06:52:24;96226.13;;;14.45;81.38
40502;BME280;29631;49.168;9.848;2022-11-15T06:54:50;96183.53;;;14.07;81.49
40502;BME280;29631;49.168;9.848;2022-11-15T06:57:16;96247.31;;;14.56;81.50
40502;BME280;29631;49.168;9.848;2022-11-15T06:59:42;96223.72;;;14.44;81.93
40502;BME280;29631;49.168;9.848;2022-11-15T07:02:13;96239.41;;;14.45;82.14
40502;BME280;29631;49.168;9.848;2022-11-15T07:04:39;96228.22;;;14.43;81.74
40502;BME280;29631;49.168;9.848;2022-11-15T07:07:04;96223.41;;;14.40;81.78
40502;BME280;29631;49.168;9.848;2022-11-15T07:09:30;96233.38;;;14.50;82.13
40502;BME280;29631;49.168;9.848;2022-11-15T07:11:56;96207.63;;;14.34;82.48
40502;BME280;29631;49.168;9.848;2022-11-15T07:14:21;96167.28;;;14.15;81.87
40502;BME280;29631;49.168;9.848;2022-11-15T07:16:47;96240.06;;;14.68;82.33
40502;BME280;29631;49.168;9.848;2022-11-15T07:19:13;96241.19;;;14.72;81.59
40502;BME280;29631;49.168;9.848;2022-11-15T07:21:39;96236.47;;;14.74;82.15
40502;BME280;29631;49.168;9.848;2022-11-15T07:24:05;96232.19;;;14.73;82.10
40502;BME280;29631;49.168;9.848;2022-11-15T07:26:31;96249.88;;;14.84;81.63
40502;BME280;29631;49.168;9.848;2022-11-15T07:28:56;96241.69;;;14.86;82.54
40502;BME280;29631;49.168;9.848;2022-11-15T07:31:22;96177.44;;;14.51;82.21
40502;BME280;29631;49.168;9.848;2022-11-15T07:33:48;96237.69;;;15.00;82.03
40502;BME280;29631;49.168;9.848;2022-11-15T07:36:14;96235.31;;;15.03;82.62
40502;BME280;29631;49.168;9.848;2022-11-15T07:38:39;96196.41;;;14.92;81.78
40502;BME280;29631;49.168;9.848;2022-11-15T07:41:06;96199.75;;;15.04;82.16
40502;BME280;29631;49.168;9.848;2022-11-15T07:43:32;96239.69;;;15.26;81.84
40502;BME280;29631;49.168;9.848;2022-11-15T07:46:04;96237.34;;;15.29;81.78
40502;BME280;29631;49.168;9.848;2022-11-15T07:48:30;96239.50;;;15.32;82.17
40502;BME280;29631;49.168;9.848;2022-11-15T07:50:56;96210.22;;;15.27;82.29
40502;BME280;29631;49.168;9.848;2022-11-15T07:53:22;96205.31;;;15.35;81.59
40502;BME280;29631;49.168;9.848;2022-11-15T07:55:48;96229.75;;;15.54;81.99
40502;BME280;29631;49.168;9.848;2022-11-15T07:58:14;96225.53;;;15.58;81.43
40502;BME280;29631;49.168;9.848;2022-11-15T08:00:40;96226.34;;;15.80;82.18
40502;BME280;29631;49.168;9.848;2022-11-15T08:03:11;96235.97;;;16.28;81.04
40502;BME280;29631;49.168;9.848;2022-11-15T08:05:39;96230.88;;;17.11;79.45
40502;BME280;29631;49.168;9.848;2022-11-15T08:08:06;96221.16;;;17.72;78.01
40502;BME280;29631;49.168;9.848;2022-11-15T08:10:33;96207.72;;;18.14;76.65
40502;BME280;29631;49.168;9.848;2022-11-15T08:13:08;96229.16;;;18.38;76.46
40502;BME280;29631;49.168;9.848;2022-11-15T08:15:35;96191.53;;;18.45;77.07
40502;BME280;29631;49.168;9.848;2022-11-15T08:18:11;96209.22;;;19.00;76.39
40502;BME280;29631;49.168;9.848;2022-11-15T08:20:38;96211.81;;;19.60;75.81
40502;BME280;29631;49.168;9.848;2022-11-15T08:23:05;96212.25;;;19.97;75.06
40502;BME280;29631;49.168;9.848;2022-11-15T08:25:32;96179.84;;;20.03;74.71
40502;BME280;29631;49.168;9.848;2022-11-15T08:28:03;96164.97;;;20.31;74.36
40502;BME280;29631;49.168;9.848;2022-11-15T08:30:30;96156.69;;;20.65;74.07
40502;BME280;29631;49.168;9.848;2022-11-15T08:32:58;96192.91;;;21.01;74.53
40502;BME280;29631;49.168;9.848;2022-11-15T08:35:24;96179.03;;;20.89;74.83
40502;BME280;29631;49.168;9.848;2022-11-15T08:37:52;96187.13;;;20.84;75.41
40502;BME280;29631;49.168;9.848;2022-11-15T08:40:18;96149.84;;;20.49;75.90
40502;BME280;29631;49.168;9.848;2022-11-15T08:42:46;96149.94;;;20.35;75.95
40502;BME280;29631;49.168;9.848;2022-11-15T08:45:12;96163.28;;;20.40;76.76
40502;BME280;29631;49.168;9.848;2022-11-15T08:47:38;96176.09;;;20.47;76.77
40502;BME280;29631;49.168;9.848;2022-11-15T08:50:05;96184.88;;;20.58;76.86
40502;BME280;29631;49.168;9.848;2022-11-15T08:52:31;96182.94;;;20.68;77.38
40502;BME280;29631;49.168;9.848;2022-11-15T08:54:57;96132.75;;;20.41;76.53
40502;BME280;29631;49.168;9.848;2022-11-15T08:57:23;96187.78;;;21.05;76.90
40502;BME280;29631;49.168;9.848;2022-11-15T08:59:49;96176.38;;;21.46;76.25
40502;BME280;29631;49.168;9.848;2022-11-15T09:02:16;96180.19;;;21.92;75.75
40502;BME280;29631;49.168;9.848;2022-11-15T09:04:42;96129.53;;;22.22;73.86
40502;BME280;29631;49.168;9.848;2022-11-15T09:07:12;96166.72;;;22.88;73.25
40502;BME280;29631;49.168;9.848;2022-11-15T09:09:38;96174.59;;;23.03;72.72
40502;BME280;29631;49.168;9.848;2022-11-15T09:12:06;96174.19;;;23.10;72.72
40502;BME280;29631;49.168;9.848;2022-11-15T09:14:33;96172.13;;;23.20;72.93
40502;BME280;29631;49.168;9.848;2022-11-15T09:16:59;96177.63;;;23.29;72.14
40502;BME280;29631;49.168;9.848;2022-11-15T09:19:26;96151.56;;;23.11;71.79
40502;BME280;29631;49.168;9.848;2022-11-15T09:21:51;96127.38;;;22.92;72.47
40502;BME280;29631;49.168;9.848;2022-11-15T09:24:17;96168.50;;;23.11;72.66
40502;BME280;29631;49.168;9.848;2022-11-15T09:26:44;96168.59;;;23.06;72.45
40502;BME280;29631;49.168;9.848;2022-11-15T09:29:10;96141.78;;;22.83;73.21
40502;BME280;29631;49.168;9.848;2022-11-15T09:31:35;96146.75;;;22.76;73.25
40502;BME280;29631;49.168;9.848;2022-11-15T09:34:01;96121.22;;;22.60;73.92
40502;BME280;29631;49.168;9.848;2022-11-15T09:36:27;96152.13;;;22.76;74.00
40502;BME280;29631;49.168;9.848;2022-11-15T09:38:53;96154.47;;;22.64;74.04
40502;BME280;29631;49.168;9.848;2022-11-15T09:41:50;96111.13;;;22.34;74.48
40502;BME280;29631;49.168;9.848;2022-11-15T09:44:29;96153.47;;;22.60;75.41
40502;BME280;29631;49.168;9.848;2022-11-15T09:49:50;96137.06;;;22.43;75.18
40502;BME280;29631;49.168;9.848;2022-11-15T09:52:17;96119.59;;;22.22;75.46
40502;BME280;29631;49.168;9.848;2022-11-15T09:54:48;96135.94;;;22.26;75.16
40502;BME280;29631;49.168;9.848;2022-11-15T09:57:39;96130.91;;;22.19;74.57
40502;BME280;29631;49.168;9.848;2022-11-15T10:03:12;96133.16;;;22.12;75.34
40502;BME280;29631;49.168;9.848;2022-11-15T10:05:46;96115.06;;;21.99;75.44
40502;BME280;29631;49.168;9.848;2022-11-15T10:11:22;96120.47;;;21.76;74.69
40502;BME280;29631;49.168;9.848;2022-11-15T10:13:51;96107.13;;;21.71;74.83
40502;BME280;29631;49.168;9.848;2022-11-15T10:16:38;96116.03;;;21.67;74.55
40502;BME280;29631;49.168;9.848;2022-11-15T10:20:17;96104.75;;;21.70;74.55
40502;BME280;29631;49.168;9.848;2022-11-15T10:22:46;96094.63;;;21.62;74.51
40502;BME280;29631;49.168;9.848;2022-11-15T10:25:25;96082.59;;;21.59;74.82
40502;BME280;29631;49.168;9.848;2022-11-15T10:31:02;96092.84;;;21.52;75.65
40502;BME280;29631;49.168;9.848;2022-11-15T10:33:42;96092.63;;;21.49;75.68
40502;BME280;29631;49.168;9.848;2022-11-15T10:46:45;96073.13;;;21.43;76.95
40502;BME280;29631;49.168;9.848;2022-11-15T10:52:12;96089.38;;;21.52;76.55
40502;BME280;29631;49.168;9.848;2022-11-15T10:57:24;96064.66;;;21.55;76.41
40502;BME280;29631;49.168;9.848;2022-11-15T11:00:29;96070.25;;;21.58;76.30
40502;BME280;29631;49.168;9.848;2022-11-15T11:05:36;96048.22;;;21.38;76.54
40502;BME280;29631;49.168;9.848;2022-11-15T11:10:38;96054.81;;;21.45;77.19
40502;BME280;29631;49.168;9.848;2022-11-15T11:13:37;96057.22;;;21.47;76.79
40502;BME280;29631;49.168;9.848;2022-11-15T11:22:17;96061.63;;;21.38;77.27
40502;BME280;29631;49.168;9.848;2022-11-15T11:24:51;96061.13;;;21.36;77.29
40502;BME280;29631;49.168;9.848;2022-11-15T11:45:47;96051.06;;;21.23;78.28
40502;BME280;29631;49.168;9.848;2022-11-15T11:48:44;96044.09;;;21.22;78.43
40502;BME280;29631;49.168;9.848;2022-11-15T11:51:43;96025.47;;;21.12;78.36
40502;BME280;29631;49.168;9.848;2022-11-15T11:54:25;96041.25;;;21.14;78.34
40502;BME280;29631;49.168;9.848;2022-11-15T11:56:54;96034.53;;;21.16;77.98
40502;BME280;29631;49.168;9.848;2022-11-15T12:03:07;96044.16;;;21.17;78.07
40502;BME280;29631;49.168;9.848;2022-11-15T12:05:48;96038.41;;;21.05;77.27
40502;BME280;29631;49.168;9.848;2022-11-15T12:08:52;96025.06;;;21.00;77.10
40502;BME280;29631;49.168;9.848;2022-11-15T12:11:50;96029.38;;;20.96;76.89
40502;BME280;29631;49.168;9.848;2022-11-15T12:16:51;96020.28;;;20.97;77.32
40502;BME280;29631;49.168;9.848;2022-11-15T12:19:17;96016.75;;;21.02;77.32
40502;BME280;29631;49.168;9.848;2022-11-15T12:22:13;96011.84;;;21.09;76.68
40502;BME280;29631;49.168;9.848;2022-11-15T12:24:46;96016.34;;;21.13;76.58
40502;BME280;29631;49.168;9.848;2022-11-15T12:30:23;95956.06;;;20.87;76.20
40502;BME280;29631;49.168;9.848;2022-11-15T12:33:01;95979.44;;;21.05;76.19
40502;BME280;29631;49.168;9.848;2022-11-15T12:35:35;95993.81;;;21.14;76.27
40502;BME280;29631;49.168;9.848;2022-11-15T12:38:03;95974.22;;;21.14;76.42
40502;BME280;29631;49.168;9.848;2022-11-15T12:41:12;95974.44;;;21.17;75.95
40502;BME280;29631;49.168;9.848;2022-11-15T12:43:42;95943.56;;;21.01;76.18
40502;BME280;29631;49.168;9.848;2022-11-15T12:49:09;95961.88;;;21.17;76.15
40502;BME280;29631;49.168;9.848;2022-11-15T12:59:52;95960.59;;;21.10;76.41
40502;BME280;29631;49.168;9.848;2022-11-15T13:02:26;95959.06;;;21.04;76.86
40502;BME280;29631;49.168;9.848;2022-11-15T13:17:49;95947.56;;;21.04;77.31
40502;BME280;29631;49.168;9.848;2022-11-15T13:27:56;95917.28;;;20.80;77.76
40502;BME280;29631;49.168;9.848;2022-11-15T13:30:29;95935.00;;;20.99;78.02
40502;BME280;29631;49.168;9.848;2022-11-15T13:33:09;95956.31;;;21.09;77.64
40502;BME280;29631;49.168;9.848;2022-11-15T13:35:39;95932.41;;;20.94;77.28
40502;BME280;29631;49.168;9.848;2022-11-15T13:38:06;95933.34;;;21.03;77.41
40502;BME280;29631;49.168;9.848;2022-11-15T13:40:36;95922.16;;;20.96;77.22
40502;BME280;29631;49.168;9.848;2022-11-15T13:43:34;95936.75;;;21.09;76.57
40502;BME280;29631;49.168;9.848;2022-11-15T13:46:24;95933.56;;;21.07;77.25
40502;BME280;29631;49.168;9.848;2022-11-15T13:49:07;95933.06;;;21.05;76.48
40502;BME280;29631;49.168;9.848;2022-11-15T13:51:44;95920.78;;;20.99;76.42
40502;BME280;29631;49.168;9.848;2022-11-15T13:56:40;95893.56;;;20.92;76.31
40502;BME280;29631;49.168;9.848;2022-11-15T13:59:29;95906.53;;;21.03;76.48
40502;BME280;29631;49.168;9.848;2022-11-15T14:02:03;95907.03;;;21.05;76.98
40502;BME280;29631;49.168;9.848;2022-11-15T14:04:30;95881.47;;;20.94;77.42
40502;BME280;29631;49.168;9.848;2022-11-15T14:07:00;95879.06;;;20.93;77.61
40502;BME280;29631;49.168;9.848;2022-11-15T14:12:31;95863.91;;;20.83;77.92
40502;BME280;29631;49.168;9.848;2022-11-15T14:15:19;95881.03;;;20.87;78.41
40502;BME280;29631;49.168;9.848;2022-11-15T14:17:49;95869.91;;;20.75;78.53
40502;BME280;29631;49.168;9.848;2022-11-15T14:20:37;95874.69;;;20.78;78.22
40502;BME280;29631;49.168;9.848;2022-11-15T14:23:28;95877.41;;;20.73;78.88
40502;BME280;29631;49.168;9.848;2022-11-15T14:25:58;95867.78;;;20.72;78.94
40502;BME280;29631;49.168;9.848;2022-11-15T14:30:54;95870.81;;;20.66;78.88
40502;BME280;29631;49.168;9.848;2022-11-15T14:33:36;95866.88;;;20.58;79.08
40502;BME280;29631;49.168;9.848;2022-11-15T14:36:16;95861.28;;;20.55;79.44
40502;BME280;29631;49.168;9.848;2022-11-15T14:38:42;95848.47;;;20.52;79.16
40502;BME280;29631;49.168;9.848;2022-11-15T14:41:24;95851.47;;;20.45;79.13
40502;BME280;29631;49.168;9.848;2022-11-15T14:43:51;95850.69;;;20.45;79.21
40502;BME280;29631;49.168;9.848;2022-11-15T14:46:17;95841.91;;;20.40;79.07
40502;BME280;29631;49.168;9.848;2022-11-15T14:48:43;95838.00;;;20.32;78.85
40502;BME280;29631;49.168;9.848;2022-11-15T14:51:27;95843.06;;;20.34;79.54
40502;BME280;29631;49.168;9.848;2022-11-15T14:53:53;95832.72;;;20.27;79.41
40502;BME280;29631;49.168;9.848;2022-11-15T14:56:20;95820.16;;;20.23;79.98
40502;BME280;29631;49.168;9.848;2022-11-15T14:58:46;95831.34;;;20.30;79.46
40502;BME280;29631;49.168;9.848;2022-11-15T15:01:23;95836.16;;;20.28;79.35
40502;BME280;29631;49.168;9.848;2022-11-15T15:03:49;95823.41;;;20.20;79.57
40502;BME280;29631;49.168;9.848;2022-11-15T15:06:18;95820.16;;;20.23;79.78
40502;BME280;29631;49.168;9.848;2022-11-15T15:08:45;95825.00;;;20.21;79.63
40502;BME280;29631;49.168;9.848;2022-11-15T15:11:25;95809.09;;;20.06;79.47
40502;BME280;29631;49.168;9.848;2022-11-15T15:13:52;95817.09;;;20.11;79.41
40502;BME280;29631;49.168;9.848;2022-11-15T15:16:19;95819.25;;;20.09;79.43
40502;BME280;29631;49.168;9.848;2022-11-15T15:18:45;95816.88;;;20.07;78.95
40502;BME280;29631;49.168;9.848;2022-11-15T15:21:29;95809.44;;;19.99;78.65
40502;BME280;29631;49.168;9.848;2022-11-15T15:23:56;95767.81;;;19.60;78.61
40502;BME280;29631;49.168;9.848;2022-11-15T15:26:23;95805.47;;;19.97;78.34
40502;BME280;29631;49.168;9.848;2022-11-15T15:28:49;95812.91;;;20.00;78.17
40502;BME280;29631;49.168;9.848;2022-11-15T15:31:16;95777.84;;;19.73;78.42
40502;BME280;29631;49.168;9.848;2022-11-15T15:33:42;95797.00;;;19.85;78.96